sensor_id;sensor_type;location;lat;lon;timestamp;P1;durP1;ratioP1;P2;durP2;ratioP2
7817;SDS011;3954;52.624;9.212;2024-02-16T00:00:02;6.33;;;2.20;;
7817;SDS011;3954;52.624;9.212;2024-02-16T00:02:28;3.83;;;2.33;;
7817;SDS011;3954;52.624;9.212;2024-02-16T00:04:54;4.63;;;2.30;;
7817;SDS011;3954;52.624;9.212;2024-02-16T00:07:20;3.37;;;2.30;;
7817;SDS011;3954;52.624;9.212;2024-02-16T00:09:46;5.30;;;2.63;;
7817;SDS011;3954;52.624;9.212;2024-02-16T00:12:12;5.13;;;2.83;;
7817;SDS011;3954;52.624;9.212;2024-02-16T00:14:39;7.23;;;2.43;;
7817;SDS011;3954;52.624;9.212;2024-02-16T00:17:07;6.07;;;2.43;;
7817;SDS011;3954;52.624;9.212;2024-02-16T00:19:35;3.53;;;2.10;;
7817;SDS011;3954;52.624;9.212;2024-02-16T00:22:01;3.23;;;2.33;;
7817;SDS011;3954;52.624;9.212;2024-02-16T00:24:27;5.27;;;2.10;;
7817;SDS011;3954;52.624;9.212;2024-02-16T00:26:53;5.17;;;2.40;;
7817;SDS011;3954;52.624;9.212;2024-02-16T00:29:19;4.87;;;2.43;;
7817;SDS011;3954;52.624;9.212;2024-02-16T00:31:45;3.17;;;2.20;;
7817;SDS011;3954;52.624;9.212;2024-02-16T00:34:12;5.80;;;2.43;;
7817;SDS011;3954;52.624;9.212;2024-02-16T00:36:38;3.67;;;2.43;;
7817;SDS011;3954;52.624;9.212;2024-02-16T00:39:04;4.90;;;2.40;;
7817;SDS011;3954;52.624;9.212;2024-02-16T00:41:30;2.97;;;2.00;;
7817;SDS011;3954;52.624;9.212;2024-02-16T00:43:56;3.70;;;2.33;;
7817;SDS011;3954;52.624;9.212;2024-02-16T00:46:22;3.63;;;2.50;;
7817;SDS011;3954;52.624;9.212;2024-02-16T00:48:48;4.60;;;2.30;;
7817;SDS011;3954;52.624;9.212;2024-02-16T00:51:16;3.67;;;2.37;;
7817;SDS011;3954;52.624;9.212;2024-02-16T00:53:42;3.27;;;2.23;;
7817;SDS011;3954;52.624;9.212;2024-02-16T00:56:08;4.13;;;2.37;;
7817;SDS011;3954;52.624;9.212;2024-02-16T00:58:34;2.73;;;2.13;;
7817;SDS011;3954;52.624;9.212;2024-02-16T01:01:01;6.20;;;2.10;;
7817;SDS011;3954;52.624;9.212;2024-02-16T01:03:29;3.77;;;2.17;;
7817;SDS011;3954;52.624;9.212;2024-02-16T01:05:55;4.10;;;1.90;;
7817;SDS011;3954;52.624;9.212;2024-02-16T01:08:22;3.90;;;2.07;;
7817;SDS011;3954;52.624;9.212;2024-02-16T01:10:48;4.20;;;2.10;;
7817;SDS011;3954;52.624;9.212;2024-02-16T01:13:14;3.63;;;2.67;;
7817;SDS011;3954;52.624;9.212;2024-02-16T01:15:40;5.83;;;2.10;;
7817;SDS011;3954;52.624;9.212;2024-02-16T01:18:06;3.20;;;1.87;;
7817;SDS011;3954;52.624;9.212;2024-02-16T01:20:32;4.73;;;1.93;;
7817;SDS011;3954;52.624;9.212;2024-02-16T01:22:58;4.70;;;2.00;;
7817;SDS011;3954;52.624;9.212;2024-02-16T01:25:25;4.07;;;1.83;;
7817;SDS011;3954;52.624;9.212;2024-02-16T01:27:51;4.97;;;2.53;;
7817;SDS011;3954;52.624;9.212;2024-02-16T01:30:17;3.77;;;1.70;;
7817;SDS011;3954;52.624;9.212;2024-02-16T01:32:45;2.67;;;1.93;;
7817;SDS011;3954;52.624;9.212;2024-02-16T01:35:11;4.40;;;1.87;;
7817;SDS011;3954;52.624;9.212;2024-02-16T01:37:39;3.40;;;2.20;;
7817;SDS011;3954;52.624;9.212;2024-02-16T01:40:06;2.73;;;2.00;;
7817;SDS011;3954;52.624;9.212;2024-02-16T01:42:34;4.40;;;2.00;;
7817;SDS011;3954;52.624;9.212;2024-02-16T01:45:00;3.37;;;1.80;;
7817;SDS011;3954;52.624;9.212;2024-02-16T01:47:26;4.50;;;1.73;;
7817;SDS011;3954;52.624;9.212;2024-02-16T01:49:52;3.03;;;1.80;;
7817;SDS011;3954;52.624;9.212;2024-02-16T01:52:18;3.87;;;1.87;;
7817;SDS011;3954;52.624;9.212;2024-02-16T01:54:44;3.23;;;1.67;;
7817;SDS011;3954;52.624;9.212;2024-02-16T01:57:10;2.27;;;1.73;;
7817;SDS011;3954;52.624;9.212;2024-02-16T01:59:39;2.47;;;1.73;;
7817;SDS011;3954;52.624;9.212;2024-02-16T02:02:05;5.30;;;1.67;;
7817;SDS011;3954;52.624;9.212;2024-02-16T02:04:32;3.13;;;1.70;;
7817;SDS011;3954;52.624;9.212;2024-02-16T02:06:59;5.67;;;2.03;;
7817;SDS011;3954;52.624;9.212;2024-02-16T02:09:25;2.97;;;1.90;;
7817;SDS011;3954;52.624;9.212;2024-02-16T02:11:51;2.13;;;1.60;;
7817;SDS011;3954;52.624;9.212;2024-02-16T02:14:17;3.60;;;1.87;;
7817;SDS011;3954;52.624;9.212;2024-02-16T02:16:44;2.93;;;2.00;;
7817;SDS011;3954;52.624;9.212;2024-02-16T02:19:10;4.20;;;1.87;;
7817;SDS011;3954;52.624;9.212;2024-02-16T02:21:36;3.37;;;1.90;;
7817;SDS011;3954;52.624;9.212;2024-02-16T02:24:04;1.80;;;1.57;;
7817;SDS011;3954;52.624;9.212;2024-02-16T02:26:30;3.50;;;1.60;;
7817;SDS011;3954;52.624;9.212;2024-02-16T02:28:57;6.73;;;2.23;;
7817;SDS011;3954;52.624;9.212;2024-02-16T02:31:23;2.53;;;1.77;;
7817;SDS011;3954;52.624;9.212;2024-02-16T02:33:49;4.10;;;1.80;;
7817;SDS011;3954;52.624;9.212;2024-02-16T02:36:15;3.37;;;1.70;;
7817;SDS011;3954;52.624;9.212;2024-02-16T02:38:41;2.37;;;1.80;;
7817;SDS011;3954;52.624;9.212;2024-02-16T02:41:08;3.70;;;1.77;;
7817;SDS011;3954;52.624;9.212;2024-02-16T02:43:34;2.53;;;1.70;;
7817;SDS011;3954;52.624;9.212;2024-02-16T02:46:00;3.37;;;1.70;;
7817;SDS011;3954;52.624;9.212;2024-02-16T02:48:26;3.27;;;1.83;;
7817;SDS011;3954;52.624;9.212;2024-02-16T02:50:52;4.23;;;1.73;;
7817;SDS011;3954;52.624;9.212;2024-02-16T02:53:18;3.27;;;1.87;;
7817;SDS011;3954;52.624;9.212;2024-02-16T02:55:44;2.00;;;1.63;;
7817;SDS011;3954;52.624;9.212;2024-02-16T02:58:12;2.50;;;1.80;;
7817;SDS011;3954;52.624;9.212;2024-02-16T03:00:38;5.63;;;1.80;;
7817;SDS011;3954;52.624;9.212;2024-02-16T03:03:04;3.73;;;2.00;;
7817;SDS011;3954;52.624;9.212;2024-02-16T03:05:30;2.57;;;1.87;;
7817;SDS011;3954;52.624;9.212;2024-02-16T03:07:56;2.40;;;1.60;;
7817;SDS011;3954;52.624;9.212;2024-02-16T03:10:23;2.47;;;1.63;;
7817;SDS011;3954;52.624;9.212;2024-02-16T03:12:49;2.77;;;1.87;;
7817;SDS011;3954;52.624;9.212;2024-02-16T03:15:17;3.37;;;1.87;;
7817;SDS011;3954;52.624;9.212;2024-02-16T03:17:43;2.90;;;1.80;;
7817;SDS011;3954;52.624;9.212;2024-02-16T03:20:09;2.23;;;1.70;;
7817;SDS011;3954;52.624;9.212;2024-02-16T03:22:36;2.10;;;1.63;;
7817;SDS011;3954;52.624;9.212;2024-02-16T03:25:02;2.47;;;1.77;;
7817;SDS011;3954;52.624;9.212;2024-02-16T03:27:30;4.17;;;2.17;;
7817;SDS011;3954;52.624;9.212;2024-02-16T03:29:56;4.63;;;2.00;;
7817;SDS011;3954;52.624;9.212;2024-02-16T03:32:23;3.23;;;1.90;;
7817;SDS011;3954;52.624;9.212;2024-02-16T03:34:49;4.33;;;1.90;;
7817;SDS011;3954;52.624;9.212;2024-02-16T03:37:15;3.27;;;1.90;;
7817;SDS011;3954;52.624;9.212;2024-02-16T03:39:41;3.30;;;1.73;;
7817;SDS011;3954;52.624;9.212;2024-02-16T03:42:08;3.33;;;1.60;;
7817;SDS011;3954;52.624;9.212;2024-02-16T03:44:34;2.67;;;1.63;;
7817;SDS011;3954;52.624;9.212;2024-02-16T03:47:00;3.07;;;1.80;;
7817;SDS011;3954;52.624;9.212;2024-02-16T03:49:28;3.57;;;2.17;;
7817;SDS011;3954;52.624;9.212;2024-02-16T03:51:54;3.57;;;1.90;;
7817;SDS011;3954;52.624;9.212;2024-02-16T03:54:20;2.57;;;1.77;;
7817;SDS011;3954;52.624;9.212;2024-02-16T03:56:46;2.10;;;1.50;;
7817;SDS011;3954;52.624;9.212;2024-02-16T03:59:13;3.20;;;1.87;;
7817;SDS011;3954;52.624;9.212;2024-02-16T04:01:39;3.33;;;1.77;;
7817;SDS011;3954;52.624;9.212;2024-02-16T04:04:07;1.93;;;1.70;;
7817;SDS011;3954;52.624;9.212;2024-02-16T04:06:34;3.10;;;1.80;;
7817;SDS011;3954;52.624;9.212;2024-02-16T04:09:00;2.53;;;1.80;;
7817;SDS011;3954;52.624;9.212;2024-02-16T04:11:26;2.00;;;1.70;;
7817;SDS011;3954;52.624;9.212;2024-02-16T04:13:54;2.57;;;1.57;;
7817;SDS011;3954;52.624;9.212;2024-02-16T04:16:20;4.23;;;1.70;;
7817;SDS011;3954;52.624;9.212;2024-02-16T04:18:47;2.10;;;1.90;;
7817;SDS011;3954;52.624;9.212;2024-02-16T04:21:13;4.20;;;1.90;;
7817;SDS011;3954;52.624;9.212;2024-02-16T04:23:40;3.80;;;1.80;;
7817;SDS011;3954;52.624;9.212;2024-02-16T04:26:06;3.23;;;1.80;;
7817;SDS011;3954;52.624;9.212;2024-02-16T04:28:32;3.80;;;2.00;;
7817;SDS011;3954;52.624;9.212;2024-02-16T04:30:58;5.53;;;1.80;;
7817;SDS011;3954;52.624;9.212;2024-02-16T04:33:24;2.57;;;1.80;;
7817;SDS011;3954;52.624;9.212;2024-02-16T04:35:50;2.57;;;1.60;;
7817;SDS011;3954;52.624;9.212;2024-02-16T04:38:16;2.87;;;2.00;;
7817;SDS011;3954;52.624;9.212;2024-02-16T04:40:44;3.53;;;1.93;;
7817;SDS011;3954;52.624;9.212;2024-02-16T04:43:10;3.67;;;1.80;;
7817;SDS011;3954;52.624;9.212;2024-02-16T04:45:36;2.70;;;1.60;;
7817;SDS011;3954;52.624;9.212;2024-02-16T04:48:02;2.77;;;1.83;;
7817;SDS011;3954;52.624;9.212;2024-02-16T04:50:28;3.90;;;1.73;;
7817;SDS011;3954;52.624;9.212;2024-02-16T04:52:54;2.53;;;2.00;;
7817;SDS011;3954;52.624;9.212;2024-02-16T04:55:20;2.63;;;1.60;;
7817;SDS011;3954;52.624;9.212;2024-02-16T04:57:48;2.47;;;1.80;;
7817;SDS011;3954;52.624;9.212;2024-02-16T05:00:14;2.13;;;1.73;;
7817;SDS011;3954;52.624;9.212;2024-02-16T05:02:40;3.00;;;1.90;;
7817;SDS011;3954;52.624;9.212;2024-02-16T05:05:06;2.57;;;2.00;;
7817;SDS011;3954;52.624;9.212;2024-02-16T05:07:32;3.87;;;1.97;;
7817;SDS011;3954;52.624;9.212;2024-02-16T05:10:01;2.33;;;1.80;;
7817;SDS011;3954;52.624;9.212;2024-02-16T05:12:27;2.43;;;1.80;;
7817;SDS011;3954;52.624;9.212;2024-02-16T05:14:54;1.90;;;1.80;;
7817;SDS011;3954;52.624;9.212;2024-02-16T05:17:21;3.60;;;1.90;;
7817;SDS011;3954;52.624;9.212;2024-02-16T05:19:47;3.30;;;2.00;;
7817;SDS011;3954;52.624;9.212;2024-02-16T05:22:13;2.50;;;1.80;;
7817;SDS011;3954;52.624;9.212;2024-02-16T05:24:39;3.63;;;1.87;;
7817;SDS011;3954;52.624;9.212;2024-02-16T05:27:05;3.10;;;1.80;;
7817;SDS011;3954;52.624;9.212;2024-02-16T05:29:31;3.47;;;2.00;;
7817;SDS011;3954;52.624;9.212;2024-02-16T05:31:59;2.87;;;1.70;;
7817;SDS011;3954;52.624;9.212;2024-02-16T05:34:25;3.07;;;1.80;;
7817;SDS011;3954;52.624;9.212;2024-02-16T05:36:51;2.97;;;1.90;;
7817;SDS011;3954;52.624;9.212;2024-02-16T05:39:17;2.33;;;2.13;;
7817;SDS011;3954;52.624;9.212;2024-02-16T05:41:51;3.90;;;2.17;;
7817;SDS011;3954;52.624;9.212;2024-02-16T05:44:17;3.30;;;2.17;;
7817;SDS011;3954;52.624;9.212;2024-02-16T05:46:44;3.97;;;2.07;;
7817;SDS011;3954;52.624;9.212;2024-02-16T05:49:11;6.00;;;2.60;;
7817;SDS011;3954;52.624;9.212;2024-02-16T05:51:37;3.17;;;2.47;;
7817;SDS011;3954;52.624;9.212;2024-02-16T05:54:07;4.37;;;2.40;;
7817;SDS011;3954;52.624;9.212;2024-02-16T05:56:33;4.70;;;2.30;;
7817;SDS011;3954;52.624;9.212;2024-02-16T05:58:59;4.30;;;2.10;;
7817;SDS011;3954;52.624;9.212;2024-02-16T06:01:25;2.40;;;1.90;;
7817;SDS011;3954;52.624;9.212;2024-02-16T06:03:52;3.63;;;1.90;;
7817;SDS011;3954;52.624;9.212;2024-02-16T06:06:20;1.93;;;1.60;;
7817;SDS011;3954;52.624;9.212;2024-02-16T06:08:46;2.57;;;1.93;;
7817;SDS011;3954;52.624;9.212;2024-02-16T06:11:12;3.77;;;2.10;;
7817;SDS011;3954;52.624;9.212;2024-02-16T06:13:38;2.13;;;1.93;;
7817;SDS011;3954;52.624;9.212;2024-02-16T06:16:04;2.77;;;1.87;;
7817;SDS011;3954;52.624;9.212;2024-02-16T06:18:33;3.33;;;2.03;;
7817;SDS011;3954;52.624;9.212;2024-02-16T06:20:59;3.87;;;2.17;;
7817;SDS011;3954;52.624;9.212;2024-02-16T06:23:26;4.37;;;2.03;;
7817;SDS011;3954;52.624;9.212;2024-02-16T06:25:52;3.07;;;2.00;;
7817;SDS011;3954;52.624;9.212;2024-02-16T06:28:18;4.23;;;2.00;;
7817;SDS011;3954;52.624;9.212;2024-02-16T06:30:44;2.40;;;1.80;;
7817;SDS011;3954;52.624;9.212;2024-02-16T06:33:11;2.63;;;2.00;;
7817;SDS011;3954;52.624;9.212;2024-02-16T06:35:37;3.83;;;1.90;;
7817;SDS011;3954;52.624;9.212;2024-02-16T06:38:03;3.53;;;1.80;;
7817;SDS011;3954;52.624;9.212;2024-02-16T06:40:30;2.23;;;1.90;;
7817;SDS011;3954;52.624;9.212;2024-02-16T06:42:57;4.40;;;2.10;;
7817;SDS011;3954;52.624;9.212;2024-02-16T06:45:23;2.87;;;1.77;;
7817;SDS011;3954;52.624;9.212;2024-02-16T06:47:50;3.23;;;1.80;;
7817;SDS011;3954;52.624;9.212;2024-02-16T06:50:16;4.37;;;2.10;;
7817;SDS011;3954;52.624;9.212;2024-02-16T06:52:42;1.93;;;1.77;;
7817;SDS011;3954;52.624;9.212;2024-02-16T06:55:08;2.00;;;1.80;;
7817;SDS011;3954;52.624;9.212;2024-02-16T06:57:35;2.57;;;2.37;;
7817;SDS011;3954;52.624;9.212;2024-02-16T07:00:02;3.43;;;2.50;;
7817;SDS011;3954;52.624;9.212;2024-02-16T07:02:28;3.30;;;2.80;;
7817;SDS011;3954;52.624;9.212;2024-02-16T07:04:54;3.33;;;2.70;;
7817;SDS011;3954;52.624;9.212;2024-02-16T07:07:20;3.30;;;2.43;;
7817;SDS011;3954;52.624;9.212;2024-02-16T07:09:46;3.20;;;2.60;;
7817;SDS011;3954;52.624;9.212;2024-02-16T07:12:12;4.13;;;2.30;;
7817;SDS011;3954;52.624;9.212;2024-02-16T07:14:39;2.90;;;2.47;;
7817;SDS011;3954;52.624;9.212;2024-02-16T07:17:05;4.40;;;2.93;;
7817;SDS011;3954;52.624;9.212;2024-02-16T07:19:34;4.20;;;2.07;;
7817;SDS011;3954;52.624;9.212;2024-02-16T07:22:00;2.70;;;2.07;;
7817;SDS011;3954;52.624;9.212;2024-02-16T07:24:26;3.47;;;1.90;;
7817;SDS011;3954;52.624;9.212;2024-02-16T07:26:52;3.57;;;2.00;;
7817;SDS011;3954;52.624;9.212;2024-02-16T07:29:18;4.47;;;2.23;;
7817;SDS011;3954;52.624;9.212;2024-02-16T07:31:45;2.43;;;1.60;;
7817;SDS011;3954;52.624;9.212;2024-02-16T07:34:11;4.93;;;2.00;;
7817;SDS011;3954;52.624;9.212;2024-02-16T07:36:37;2.27;;;2.07;;
7817;SDS011;3954;52.624;9.212;2024-02-16T07:39:03;3.80;;;1.77;;
7817;SDS011;3954;52.624;9.212;2024-02-16T07:41:29;4.57;;;2.70;;
7817;SDS011;3954;52.624;9.212;2024-02-16T07:43:55;4.50;;;1.93;;
7817;SDS011;3954;52.624;9.212;2024-02-16T07:46:21;3.97;;;2.07;;
7817;SDS011;3954;52.624;9.212;2024-02-16T07:48:49;3.03;;;1.80;;
7817;SDS011;3954;52.624;9.212;2024-02-16T07:51:15;2.63;;;1.93;;
7817;SDS011;3954;52.624;9.212;2024-02-16T07:53:44;4.47;;;1.83;;
7817;SDS011;3954;52.624;9.212;2024-02-16T07:56:11;2.93;;;2.00;;
7817;SDS011;3954;52.624;9.212;2024-02-16T07:58:37;3.30;;;1.83;;
7817;SDS011;3954;52.624;9.212;2024-02-16T08:01:03;1.93;;;1.73;;
7817;SDS011;3954;52.624;9.212;2024-02-16T08:03:29;3.63;;;1.77;;
7817;SDS011;3954;52.624;9.212;2024-02-16T08:05:57;3.47;;;2.20;;
7817;SDS011;3954;52.624;9.212;2024-02-16T08:08:23;2.83;;;1.60;;
7817;SDS011;3954;52.624;9.212;2024-02-16T08:10:49;3.70;;;1.93;;
7817;SDS011;3954;52.624;9.212;2024-02-16T08:13:16;3.60;;;2.20;;
7817;SDS011;3954;52.624;9.212;2024-02-16T08:15:43;2.07;;;1.70;;
7817;SDS011;3954;52.624;9.212;2024-02-16T08:18:09;3.03;;;1.70;;
7817;SDS011;3954;52.624;9.212;2024-02-16T08:20:36;3.73;;;1.80;;
7817;SDS011;3954;52.624;9.212;2024-02-16T08:23:04;3.73;;;2.13;;
7817;SDS011;3954;52.624;9.212;2024-02-16T08:25:30;6.13;;;2.10;;
7817;SDS011;3954;52.624;9.212;2024-02-16T08:27:58;3.10;;;1.77;;
7817;SDS011;3954;52.624;9.212;2024-02-16T08:30:25;3.07;;;1.70;;
7817;SDS011;3954;52.624;9.212;2024-02-16T08:32:51;4.37;;;1.97;;
7817;SDS011;3954;52.624;9.212;2024-02-16T08:35:17;3.60;;;1.80;;
7817;SDS011;3954;52.624;9.212;2024-02-16T08:37:43;3.70;;;2.00;;
7817;SDS011;3954;52.624;9.212;2024-02-16T08:40:12;2.47;;;1.83;;
7817;SDS011;3954;52.624;9.212;2024-02-16T08:42:39;2.20;;;1.50;;
7817;SDS011;3954;52.624;9.212;2024-02-16T08:45:05;2.93;;;1.73;;
7817;SDS011;3954;52.624;9.212;2024-02-16T08:47:31;2.33;;;1.60;;
7817;SDS011;3954;52.624;9.212;2024-02-16T08:49:57;2.10;;;1.60;;
7817;SDS011;3954;52.624;9.212;2024-02-16T08:52:23;5.67;;;2.00;;
7817;SDS011;3954;52.624;9.212;2024-02-16T08:54:49;3.40;;;3.03;;
7817;SDS011;3954;52.624;9.212;2024-02-16T08:57:16;2.93;;;2.00;;
7817;SDS011;3954;52.624;9.212;2024-02-16T08:59:42;10.07;;;5.33;;
7817;SDS011;3954;52.624;9.212;2024-02-16T09:02:09;5.87;;;5.00;;
7817;SDS011;3954;52.624;9.212;2024-02-16T09:04:35;5.60;;;2.40;;
7817;SDS011;3954;52.624;9.212;2024-02-16T09:07:01;2.30;;;2.10;;
7817;SDS011;3954;52.624;9.212;2024-02-16T09:09:27;3.70;;;1.90;;
7817;SDS011;3954;52.624;9.212;2024-02-16T09:11:53;3.80;;;1.90;;
7817;SDS011;3954;52.624;9.212;2024-02-16T09:14:21;3.23;;;1.80;;
7817;SDS011;3954;52.624;9.212;2024-02-16T09:16:48;3.47;;;1.93;;
7817;SDS011;3954;52.624;9.212;2024-02-16T09:19:16;1.90;;;1.70;;
7817;SDS011;3954;52.624;9.212;2024-02-16T09:21:42;3.67;;;2.00;;
7817;SDS011;3954;52.624;9.212;2024-02-16T09:24:08;2.40;;;1.73;;
7817;SDS011;3954;52.624;9.212;2024-02-16T09:26:35;2.50;;;1.70;;
7817;SDS011;3954;52.624;9.212;2024-02-16T09:29:02;2.40;;;1.80;;
7817;SDS011;3954;52.624;9.212;2024-02-16T09:31:29;2.43;;;1.80;;
7817;SDS011;3954;52.624;9.212;2024-02-16T09:33:55;4.17;;;2.03;;
7817;SDS011;3954;52.624;9.212;2024-02-16T09:36:21;3.60;;;1.90;;
7817;SDS011;3954;52.624;9.212;2024-02-16T09:38:48;6.57;;;1.97;;
7817;SDS011;3954;52.624;9.212;2024-02-16T09:41:14;2.63;;;1.80;;
7817;SDS011;3954;52.624;9.212;2024-02-16T09:43:41;3.43;;;2.13;;
7817;SDS011;3954;52.624;9.212;2024-02-16T09:46:07;2.37;;;1.80;;
7817;SDS011;3954;52.624;9.212;2024-02-16T09:48:35;2.93;;;1.60;;
7817;SDS011;3954;52.624;9.212;2024-02-16T09:51:02;2.33;;;1.80;;
7817;SDS011;3954;52.624;9.212;2024-02-16T09:53:30;3.73;;;1.93;;
7817;SDS011;3954;52.624;9.212;2024-02-16T09:55:56;3.33;;;1.90;;
7817;SDS011;3954;52.624;9.212;2024-02-16T09:58:22;2.30;;;2.00;;
7817;SDS011;3954;52.624;9.212;2024-02-16T10:00:49;3.00;;;1.93;;
7817;SDS011;3954;52.624;9.212;2024-02-16T10:03:22;4.97;;;1.60;;
7817;SDS011;3954;52.624;9.212;2024-02-16T10:05:49;2.57;;;1.83;;
7817;SDS011;3954;52.624;9.212;2024-02-16T10:08:15;4.07;;;2.07;;
7817;SDS011;3954;52.624;9.212;2024-02-16T10:10:42;3.30;;;1.60;;
7817;SDS011;3954;52.624;9.212;2024-02-16T10:13:08;3.67;;;1.60;;
7817;SDS011;3954;52.624;9.212;2024-02-16T10:15:36;3.93;;;1.70;;
7817;SDS011;3954;52.624;9.212;2024-02-16T10:18:03;5.63;;;1.80;;
7817;SDS011;3954;52.624;9.212;2024-02-16T10:20:30;3.73;;;2.33;;
7817;SDS011;3954;52.624;9.212;2024-02-16T10:23:04;4.00;;;2.10;;
7817;SDS011;3954;52.624;9.212;2024-02-16T10:25:30;3.70;;;1.70;;
7817;SDS011;3954;52.624;9.212;2024-02-16T10:27:57;5.03;;;2.33;;
7817;SDS011;3954;52.624;9.212;2024-02-16T10:30:27;4.30;;;1.80;;
7817;SDS011;3954;52.624;9.212;2024-02-16T10:32:54;3.03;;;1.83;;
7817;SDS011;3954;52.624;9.212;2024-02-16T10:35:21;3.03;;;1.90;;
7817;SDS011;3954;52.624;9.212;2024-02-16T10:37:47;3.27;;;1.90;;
7817;SDS011;3954;52.624;9.212;2024-02-16T10:40:15;2.20;;;2.00;;
7817;SDS011;3954;52.624;9.212;2024-02-16T10:42:44;3.00;;;2.00;;
7817;SDS011;3954;52.624;9.212;2024-02-16T10:45:11;1.97;;;1.70;;
7817;SDS011;3954;52.624;9.212;2024-02-16T10:47:38;5.17;;;1.90;;
7817;SDS011;3954;52.624;9.212;2024-02-16T10:50:04;3.63;;;1.97;;
7817;SDS011;3954;52.624;9.212;2024-02-16T10:52:31;4.27;;;1.80;;
7817;SDS011;3954;52.624;9.212;2024-02-16T10:54:57;3.87;;;2.03;;
7817;SDS011;3954;52.624;9.212;2024-02-16T10:57:25;4.13;;;2.13;;
7817;SDS011;3954;52.624;9.212;2024-02-16T10:59:52;3.50;;;2.20;;
7817;SDS011;3954;52.624;9.212;2024-02-16T11:02:19;2.40;;;1.97;;
7817;SDS011;3954;52.624;9.212;2024-02-16T11:04:46;4.50;;;2.10;;
7817;SDS011;3954;52.624;9.212;2024-02-16T11:07:15;2.30;;;2.03;;
7817;SDS011;3954;52.624;9.212;2024-02-16T11:09:42;4.13;;;2.20;;
7817;SDS011;3954;52.624;9.212;2024-02-16T11:12:08;4.63;;;2.47;;
7817;SDS011;3954;52.624;9.212;2024-02-16T11:14:39;3.67;;;2.30;;
7817;SDS011;3954;52.624;9.212;2024-02-16T11:17:09;3.53;;;2.23;;
7817;SDS011;3954;52.624;9.212;2024-02-16T11:19:35;2.27;;;2.07;;
7817;SDS011;3954;52.624;9.212;2024-02-16T11:22:02;5.70;;;2.53;;
7817;SDS011;3954;52.624;9.212;2024-02-16T11:24:32;4.37;;;2.63;;
7817;SDS011;3954;52.624;9.212;2024-02-16T11:27:00;4.67;;;2.27;;
7817;SDS011;3954;52.624;9.212;2024-02-16T11:29:27;6.23;;;4.43;;
7817;SDS011;3954;52.624;9.212;2024-02-16T11:31:56;3.70;;;1.93;;
7817;SDS011;3954;52.624;9.212;2024-02-16T11:34:22;4.50;;;2.20;;
7817;SDS011;3954;52.624;9.212;2024-02-16T11:36:48;3.60;;;2.30;;
7817;SDS011;3954;52.624;9.212;2024-02-16T11:39:14;5.60;;;2.40;;
7817;SDS011;3954;52.624;9.212;2024-02-16T11:41:41;5.10;;;3.13;;
7817;SDS011;3954;52.624;9.212;2024-02-16T11:44:07;3.90;;;2.40;;
7817;SDS011;3954;52.624;9.212;2024-02-16T11:46:33;3.03;;;2.17;;
7817;SDS011;3954;52.624;9.212;2024-02-16T11:49:05;3.97;;;2.43;;
7817;SDS011;3954;52.624;9.212;2024-02-16T11:51:32;3.03;;;2.57;;
7817;SDS011;3954;52.624;9.212;2024-02-16T11:53:58;2.83;;;2.40;;
7817;SDS011;3954;52.624;9.212;2024-02-16T11:56:24;5.20;;;2.63;;
7817;SDS011;3954;52.624;9.212;2024-02-16T11:58:50;3.50;;;2.60;;
7817;SDS011;3954;52.624;9.212;2024-02-16T12:01:16;3.27;;;2.57;;
7817;SDS011;3954;52.624;9.212;2024-02-16T12:03:42;3.43;;;2.60;;
7817;SDS011;3954;52.624;9.212;2024-02-16T12:06:18;6.33;;;2.90;;
7817;SDS011;3954;52.624;9.212;2024-02-16T12:08:45;5.47;;;2.60;;
7817;SDS011;3954;52.624;9.212;2024-02-16T12:11:11;4.30;;;2.50;;
7817;SDS011;3954;52.624;9.212;2024-02-16T12:13:37;3.87;;;2.67;;
7817;SDS011;3954;52.624;9.212;2024-02-16T12:16:05;5.30;;;3.00;;
7817;SDS011;3954;52.624;9.212;2024-02-16T12:18:32;6.90;;;2.50;;
7817;SDS011;3954;52.624;9.212;2024-02-16T12:20:58;4.80;;;2.40;;
7817;SDS011;3954;52.624;9.212;2024-02-16T12:23:26;7.80;;;2.83;;
7817;SDS011;3954;52.624;9.212;2024-02-16T12:25:52;5.13;;;2.87;;
7817;SDS011;3954;52.624;9.212;2024-02-16T12:28:18;6.20;;;2.33;;
7817;SDS011;3954;52.624;9.212;2024-02-16T12:30:45;6.93;;;3.17;;
7817;SDS011;3954;52.624;9.212;2024-02-16T12:33:11;4.40;;;2.70;;
7817;SDS011;3954;52.624;9.212;2024-02-16T12:35:37;5.30;;;2.50;;
7817;SDS011;3954;52.624;9.212;2024-02-16T12:38:03;8.60;;;2.50;;
7817;SDS011;3954;52.624;9.212;2024-02-16T12:40:30;3.87;;;2.60;;
7817;SDS011;3954;52.624;9.212;2024-02-16T12:42:56;4.03;;;2.90;;
7817;SDS011;3954;52.624;9.212;2024-02-16T12:45:22;4.40;;;2.83;;
7817;SDS011;3954;52.624;9.212;2024-02-16T12:47:49;4.33;;;2.73;;
7817;SDS011;3954;52.624;9.212;2024-02-16T12:50:15;4.27;;;2.67;;
7817;SDS011;3954;52.624;9.212;2024-02-16T12:52:44;4.47;;;2.87;;
7817;SDS011;3954;52.624;9.212;2024-02-16T12:55:10;8.27;;;3.43;;
7817;SDS011;3954;52.624;9.212;2024-02-16T12:57:38;3.43;;;2.70;;
7817;SDS011;3954;52.624;9.212;2024-02-16T13:00:04;3.83;;;2.90;;
7817;SDS011;3954;52.624;9.212;2024-02-16T13:02:30;5.50;;;3.03;;
7817;SDS011;3954;52.624;9.212;2024-02-16T13:04:56;4.63;;;2.70;;
7817;SDS011;3954;52.624;9.212;2024-02-16T13:07:23;5.97;;;3.23;;
7817;SDS011;3954;52.624;9.212;2024-02-16T13:09:49;5.57;;;3.20;;
7817;SDS011;3954;52.624;9.212;2024-02-16T13:12:16;6.13;;;3.57;;
7817;SDS011;3954;52.624;9.212;2024-02-16T13:14:43;6.67;;;3.17;;
7817;SDS011;3954;52.624;9.212;2024-02-16T13:17:09;5.37;;;2.97;;
7817;SDS011;3954;52.624;9.212;2024-02-16T13:19:35;5.10;;;3.47;;
7817;SDS011;3954;52.624;9.212;2024-02-16T13:22:01;7.17;;;4.00;;
7817;SDS011;3954;52.624;9.212;2024-02-16T13:24:27;4.40;;;2.87;;
7817;SDS011;3954;52.624;9.212;2024-02-16T13:26:53;6.03;;;3.13;;
7817;SDS011;3954;52.624;9.212;2024-02-16T13:29:21;5.73;;;3.20;;
7817;SDS011;3954;52.624;9.212;2024-02-16T13:31:48;4.53;;;3.13;;
7817;SDS011;3954;52.624;9.212;2024-02-16T13:34:14;6.53;;;3.30;;
7817;SDS011;3954;52.624;9.212;2024-02-16T13:36:40;7.63;;;3.60;;
7817;SDS011;3954;52.624;9.212;2024-02-16T13:39:06;5.87;;;3.50;;
7817;SDS011;3954;52.624;9.212;2024-02-16T13:41:33;6.83;;;3.43;;
7817;SDS011;3954;52.624;9.212;2024-02-16T13:43:59;6.63;;;3.70;;
7817;SDS011;3954;52.624;9.212;2024-02-16T13:46:25;8.00;;;3.57;;
7817;SDS011;3954;52.624;9.212;2024-02-16T13:48:52;6.30;;;3.57;;
7817;SDS011;3954;52.624;9.212;2024-02-16T13:51:18;7.10;;;3.50;;
7817;SDS011;3954;52.624;9.212;2024-02-16T13:53:44;8.80;;;3.73;;
7817;SDS011;3954;52.624;9.212;2024-02-16T13:56:10;6.23;;;3.83;;
7817;SDS011;3954;52.624;9.212;2024-02-16T13:58:36;6.27;;;4.10;;
7817;SDS011;3954;52.624;9.212;2024-02-16T14:01:03;4.60;;;3.63;;
7817;SDS011;3954;52.624;9.212;2024-02-16T14:03:29;5.73;;;4.00;;
7817;SDS011;3954;52.624;9.212;2024-02-16T14:05:57;7.57;;;4.10;;
7817;SDS011;3954;52.624;9.212;2024-02-16T14:08:24;4.37;;;3.50;;
7817;SDS011;3954;52.624;9.212;2024-02-16T14:10:50;7.80;;;4.10;;
7817;SDS011;3954;52.624;9.212;2024-02-16T14:13:16;5.13;;;3.73;;
7817;SDS011;3954;52.624;9.212;2024-02-16T14:15:42;8.27;;;4.00;;
7817;SDS011;3954;52.624;9.212;2024-02-16T14:18:08;4.30;;;3.60;;
7817;SDS011;3954;52.624;9.212;2024-02-16T14:20:34;4.63;;;3.90;;
7817;SDS011;3954;52.624;9.212;2024-02-16T14:23:01;6.43;;;4.27;;
7817;SDS011;3954;52.624;9.212;2024-02-16T14:25:27;8.53;;;4.60;;
7817;SDS011;3954;52.624;9.212;2024-02-16T14:27:53;6.37;;;4.07;;
7817;SDS011;3954;52.624;9.212;2024-02-16T14:30:20;6.93;;;4.87;;
7817;SDS011;3954;52.624;9.212;2024-02-16T14:32:46;9.87;;;4.30;;
7817;SDS011;3954;52.624;9.212;2024-02-16T14:35:12;9.37;;;4.93;;
7817;SDS011;3954;52.624;9.212;2024-02-16T14:37:38;5.77;;;4.53;;
7817;SDS011;3954;52.624;9.212;2024-02-16T14:40:06;6.83;;;4.23;;
7817;SDS011;3954;52.624;9.212;2024-02-16T14:42:35;6.20;;;4.60;;
7817;SDS011;3954;52.624;9.212;2024-02-16T14:45:01;8.67;;;4.70;;
7817;SDS011;3954;52.624;9.212;2024-02-16T14:47:28;4.93;;;3.73;;
7817;SDS011;3954;52.624;9.212;2024-02-16T14:49:54;7.00;;;4.97;;
7817;SDS011;3954;52.624;9.212;2024-02-16T14:52:19;5.40;;;4.90;;
7817;SDS011;3954;52.624;9.212;2024-02-16T14:54:45;6.00;;;4.20;;
7817;SDS011;3954;52.624;9.212;2024-02-16T14:57:13;6.03;;;4.50;;
7817;SDS011;3954;52.624;9.212;2024-02-16T14:59:39;5.53;;;4.47;;
7817;SDS011;3954;52.624;9.212;2024-02-16T15:02:05;8.30;;;4.60;;
7817;SDS011;3954;52.624;9.212;2024-02-16T15:04:32;7.53;;;4.83;;
7817;SDS011;3954;52.624;9.212;2024-02-16T15:06:58;5.97;;;4.40;;
7817;SDS011;3954;52.624;9.212;2024-02-16T15:09:24;6.50;;;4.20;;